Time;durP1;ratioP1;P1;durP2;ratioP2;P2;SDS_P1;SDS_P2;PMS_P1;PMS_P2;Temp;Humidity;BMP_temperature;BMP_pressure;BME280_temperature;BME280_humidity;BME280_pressure;Samples;Min_cycle;Max_cycle;Signal;HPM_P1;HPM_P2
2023/07/03 00:01:52;;;;;;;23.07;14.60;;;;;;;;;;5012782;28;20232;-72
2023/07/03 00:04:56;;;;;;;22.20;14.53;;;;;;;;;;5001853;28;20188;-73
2023/07/03 00:08:01;;;;;;;25.23;14.73;;;;;;;;;;5014287;28;20549;-73
2023/07/03 00:11:05;;;;;;;22.93;14.13;;;;;;;;;;5001543;28;20196;-72
2023/07/03 00:14:09;;;;;;;23.83;14.80;;;;;;;;;;5013985;28;20216;-73
2023/07/03 00:17:14;;;;;;;21.30;13.27;;;;;;;;;;5013717;28;20552;-72
2023/07/03 00:20:18;;;;;;;19.37;13.53;;;;;;;;;;5001965;28;20189;-73
2023/07/03 00:23:23;;;;;;;24.47;13.93;;;;;;;;;;5013299;28;20224;-72
2023/07/03 00:26:27;;;;;;;21.63;14.07;;;;;;;;;;5012834;28;20184;-73
2023/07/03 00:29:32;;;;;;;20.83;13.97;;;;;;;;;;5013924;28;20644;-73
2023/07/03 00:32:36;;;;;;;23.30;15.30;;;;;;;;;;5012467;28;20224;-72
2023/07/03 00:35:41;;;;;;;20.43;13.73;;;;;;;;;;5012774;28;20181;-73
2023/07/03 00:38:45;;;;;;;25.03;15.30;;;;;;;;;;5013570;28;20193;-73
2023/07/03 00:41:49;;;;;;;23.73;15.00;;;;;;;;;;5001369;28;20576;-73
2023/07/03 00:44:53;;;;;;;23.10;14.43;;;;;;;;;;5012968;28;20665;-73
2023/07/03 00:47:58;;;;;;;23.33;14.20;;;;;;;;;;5012361;28;20207;-72
2023/07/03 00:51:02;;;;;;;23.60;13.77;;;;;;;;;;5012654;28;20541;-73
2023/07/03 00:54:06;;;;;;;21.63;14.60;;;;;;;;;;5012517;28;20248;-73
2023/07/03 00:57:12;;;;;;;23.57;14.80;;;;;;;;;;5001118;28;20540;-73
2023/07/03 01:00:16;;;;;;;24.00;14.50;;;;;;;;;;5012435;28;20224;-73
2023/07/03 01:03:35;;;;;;;23.63;14.53;;;;;;;;;;5012434;28;20225;-73
2023/07/03 01:06:50;;;;;;;21.37;13.80;;;;;;;;;;5012479;28;20193;-73
2023/07/03 01:10:00;;;;;;;22.83;13.83;;;;;;;;;;5001245;28;20193;-73
2023/07/03 01:13:10;;;;;;;20.50;13.93;;;;;;;;;;5013082;28;20580;-73
2023/07/03 01:16:16;;;;;;;22.73;13.50;;;;;;;;;;5013120;28;20185;-72
2023/07/03 01:19:29;;;;;;;22.00;14.83;;;;;;;;;;5012904;28;20192;-73
2023/07/03 01:22:52;;;;;;;24.63;13.60;;;;;;;;;;5016275;28;20226;-73
2023/07/03 01:25:57;;;;;;;24.70;13.70;;;;;;;;;;5015755;28;20560;-72
2023/07/03 01:29:02;;;;;;;22.13;13.47;;;;;;;;;;5015647;28;20200;-73
2023/07/03 01:32:09;;;;;;;23.17;13.50;;;;;;;;;;5015684;28;20224;-72
2023/07/03 01:35:15;;;;;;;19.97;13.30;;;;;;;;;;5016193;28;20568;-73
2023/07/03 01:38:21;;;;;;;23.67;14.23;;;;;;;;;;5015436;28;20208;-72
2023/07/03 01:41:27;;;;;;;22.37;12.97;;;;;;;;;;5015655;28;20667;-72
2023/07/03 01:44:31;;;;;;;22.90;12.60;;;;;;;;;;5015334;28;20185;-73
2023/07/03 01:47:36;;;;;;;22.27;12.83;;;;;;;;;;5015618;28;20188;-72
2023/07/03 01:50:40;;;;;;;20.17;12.90;;;;;;;;;;5015521;28;20188;-73
2023/07/03 01:54:05;;;;;;;20.07;13.23;;;;;;;;;;5004382;28;20213;-73
2023/07/03 01:57:12;;;;;;;19.50;12.80;;;;;;;;;;5015150;28;20188;-72
2023/07/03 02:00:22;;;;;;;20.97;12.63;;;;;;;;;;5015140;28;20216;-72
2023/07/03 02:03:48;;;;;;;23.10;12.37;;;;;;;;;;5004032;28;20843;-72
2023/07/03 02:06:55;;;;;;;19.57;13.27;;;;;;;;;;5003965;28;20188;-73
2023/07/03 02:09:59;;;;;;;22.70;13.67;;;;;;;;;;5015121;28;20184;-73
2023/07/03 02:13:04;;;;;;;20.77;13.67;;;;;;;;;;5003806;28;20215;-73
2023/07/03 02:16:08;;;;;;;23.03;13.47;;;;;;;;;;5014718;28;20184;-72
2023/07/03 02:19:13;;;;;;;19.67;12.40;;;;;;;;;;5014668;28;20205;-71
2023/07/03 02:22:17;;;;;;;18.93;12.90;;;;;;;;;;5015589;28;20224;-72
2023/07/03 02:25:23;;;;;;;20.77;12.93;;;;;;;;;;5015599;28;20200;-72
2023/07/03 02:28:27;;;;;;;25.30;13.03;;;;;;;;;;5014774;28;20192;-72
2023/07/03 02:31:31;;;;;;;21.50;13.10;;;;;;;;;;5012891;28;20224;-71
2023/07/03 02:34:35;;;;;;;19.73;12.87;;;;;;;;;;4995268;28;20225;-72
2023/07/03 02:37:40;;;;;;;22.23;13.30;;;;;;;;;;4982255;28;20188;-71
2023/07/03 02:40:44;;;;;;;23.20;14.53;;;;;;;;;;4994895;28;20198;-72
2023/07/03 02:43:48;;;;;;;20.67;13.17;;;;;;;;;;5006225;28;20177;-73
2023/07/03 02:46:53;;;;;;;20.40;13.20;;;;;;;;;;4983558;28;20189;-71
2023/07/03 02:49:57;;;;;;;21.67;13.30;;;;;;;;;;4995060;28;20197;-72
2023/07/03 02:53:02;;;;;;;26.07;13.27;;;;;;;;;;4994779;28;20225;-71
2023/07/03 02:56:06;;;;;;;21.40;12.87;;;;;;;;;;4994529;28;20193;-72
2023/07/03 02:59:14;;;;;;;19.63;12.70;;;;;;;;;;5010460;23;20229;-75
2023/07/03 03:02:19;;;;;;;24.10;13.43;;;;;;;;;;5004809;28;20252;-74
2023/07/03 03:05:23;;;;;;;19.33;12.00;;;;;;;;;;4994885;28;20656;-74
2023/07/03 03:08:27;;;;;;;21.63;13.53;;;;;;;;;;5005942;28;20197;-74
2023/07/03 03:11:32;;;;;;;20.67;12.67;;;;;;;;;;4994619;28;20592;-74
2023/07/03 03:14:37;;;;;;;23.90;14.07;;;;;;;;;;4994811;28;20214;-74
2023/07/03 03:17:41;;;;;;;24.57;13.27;;;;;;;;;;4994384;28;20193;-74
2023/07/03 03:20:46;;;;;;;26.47;12.73;;;;;;;;;;4994691;28;20194;-74
2023/07/03 03:23:50;;;;;;;24.53;13.57;;;;;;;;;;4994422;28;20209;-75
2023/07/03 03:26:54;;;;;;;21.03;13.63;;;;;;;;;;5005777;28;20186;-74
2023/07/03 03:29:59;;;;;;;22.27;13.27;;;;;;;;;;4995129;28;20552;-73
2023/07/03 03:33:03;;;;;;;22.20;12.83;;;;;;;;;;4983078;28;20286;-74
2023/07/03 03:36:08;;;;;;;23.47;13.50;;;;;;;;;;5005322;28;20549;-74
2023/07/03 03:39:12;;;;;;;20.97;12.93;;;;;;;;;;4994352;28;20193;-75
2023/07/03 03:42:16;;;;;;;21.73;12.77;;;;;;;;;;4993907;28;20715;-75
2023/07/03 03:45:20;;;;;;;19.93;13.57;;;;;;;;;;4995094;28;20205;-74
2023/07/03 03:48:26;;;;;;;20.77;12.53;;;;;;;;;;4994367;28;20193;-75
2023/07/03 03:51:30;;;;;;;24.07;13.13;;;;;;;;;;4983303;28;20225;-75
2023/07/03 03:54:34;;;;;;;21.20;13.10;;;;;;;;;;4994123;28;20209;-74
2023/07/03 03:57:38;;;;;;;20.93;11.90;;;;;;;;;;5005088;28;20209;-75
2023/07/03 04:00:43;;;;;;;20.20;12.83;;;;;;;;;;4994453;28;20217;-75
2023/07/03 04:03:47;;;;;;;20.47;13.30;;;;;;;;;;4995043;28;20209;-75
2023/07/03 04:06:52;;;;;;;21.47;13.17;;;;;;;;;;4994848;28;20548;-75
2023/07/03 04:09:56;;;;;;;20.57;11.87;;;;;;;;;;5005478;28;20209;-75
2023/07/03 04:13:00;;;;;;;20.50;12.60;;;;;;;;;;4994371;28;20228;-75
2023/07/03 04:16:04;;;;;;;24.77;13.60;;;;;;;;;;4993607;28;20569;-75
2023/07/03 04:19:09;;;;;;;18.57;12.43;;;;;;;;;;4993933;28;20193;-75
2023/07/03 04:22:13;;;;;;;19.53;11.97;;;;;;;;;;4994785;28;20739;-75
2023/07/03 04:25:18;;;;;;;21.77;12.30;;;;;;;;;;4993325;28;20220;-75
2023/07/03 04:28:22;;;;;;;22.83;12.27;;;;;;;;;;4971900;28;20189;-75
2023/07/03 04:31:26;;;;;;;22.10;12.30;;;;;;;;;;4994485;28;20220;-75
2023/07/03 04:34:30;;;;;;;19.87;12.33;;;;;;;;;;4994322;28;20208;-75
2023/07/03 04:37:36;;;;;;;20.73;12.23;;;;;;;;;;5004346;28;20213;-75
2023/07/03 04:40:40;;;;;;;19.70;12.27;;;;;;;;;;4994303;28;20194;-75
2023/07/03 04:43:48;;;;;;;21.67;12.93;;;;;;;;;;5004313;28;20189;-75
2023/07/03 04:46:55;;;;;;;23.40;12.93;;;;;;;;;;4993351;28;20182;-75
2023/07/03 04:49:59;;;;;;;19.73;12.27;;;;;;;;;;4993335;28;20225;-75
2023/07/03 04:53:03;;;;;;;23.43;13.23;;;;;;;;;;5004239;28;20225;-74
2023/07/03 04:56:09;;;;;;;19.50;12.83;;;;;;;;;;4996611;28;20213;-75
2023/07/03 04:59:15;;;;;;;20.10;11.90;;;;;;;;;;5007949;28;20229;-75
2023/07/03 05:02:20;;;;;;;24.23;13.67;;;;;;;;;;5007838;28;20220;-75
2023/07/03 05:05:25;;;;;;;24.17;12.60;;;;;;;;;;5007947;28;20181;-75
2023/07/03 05:08:29;;;;;;;22.10;12.23;;;;;;;;;;4985667;28;20185;-75
2023/07/03 05:11:34;;;;;;;22.40;12.90;;;;;;;;;;4997242;28;20218;-75
2023/07/03 05:14:38;;;;;;;21.73;12.37;;;;;;;;;;4997443;28;20209;-74
2023/07/03 05:17:47;;;;;;;21.60;12.77;;;;;;;;;;4996669;28;20660;-75
2023/07/03 05:20:51;;;;;;;20.57;13.37;;;;;;;;;;5007850;28;20201;-75
2023/07/03 05:23:55;;;;;;;21.37;12.67;;;;;;;;;;4996514;28;20181;-75
2023/07/03 05:26:59;;;;;;;22.27;12.90;;;;;;;;;;4997341;28;20537;-75
2023/07/03 05:30:05;;;;;;;20.47;11.80;;;;;;;;;;4997378;28;20565;-75
2023/07/03 05:33:10;;;;;;;21.93;11.63;;;;;;;;;;4995925;28;20224;-75
2023/07/03 05:36:14;;;;;;;23.30;12.70;;;;;;;;;;4997018;28;20221;-75
2023/07/03 05:39:18;;;;;;;20.30;12.73;;;;;;;;;;4995915;28;20552;-75
2023/07/03 05:42:23;;;;;;;22.73;13.33;;;;;;;;;;4985085;28;20221;-74
2023/07/03 05:45:26;;;;;;;21.70;12.00;;;;;;;;;;4997001;28;20680;-75
2023/07/03 05:48:31;;;;;;;24.03;13.20;;;;;;;;;;4996998;28;20185;-74
2023/07/03 05:51:35;;;;;;;25.90;13.17;;;;;;;;;;5007063;28;20221;-75
2023/07/03 05:54:39;;;;;;;22.13;13.33;;;;;;;;;;4995317;28;20213;-75
2023/07/03 05:57:44;;;;;;;19.40;12.47;;;;;;;;;;5007299;28;20196;-74
2023/07/03 06:00:48;;;;;;;20.63;12.53;;;;;;;;;;4998746;28;20699;-75
2023/07/03 06:03:52;;;;;;;21.20;12.50;;;;;;;;;;5007041;28;20185;-74
2023/07/03 06:06:56;;;;;;;18.73;12.23;;;;;;;;;;4983831;28;20205;-75
2023/07/03 06:10:01;;;;;;;21.17;11.70;;;;;;;;;;4996480;28;20211;-74
2023/07/03 06:13:05;;;;;;;19.60;11.97;;;;;;;;;;5007051;28;20229;-74
2023/07/03 06:16:09;;;;;;;23.30;12.90;;;;;;;;;;4995971;28;20217;-74
2023/07/03 06:19:15;;;;;;;21.63;11.93;;;;;;;;;;4995122;28;20252;-74
2023/07/03 06:22:20;;;;;;;22.73;12.43;;;;;;;;;;4996193;28;20229;-74
2023/07/03 06:25:25;;;;;;;22.40;12.10;;;;;;;;;;4996584;28;20178;-74
2023/07/03 06:28:30;;;;;;;20.53;11.50;;;;;;;;;;4995311;28;20193;-74
2023/07/03 06:31:35;;;;;;;17.97;11.40;;;;;;;;;;4994908;28;20580;-74
2023/07/03 06:34:39;;;;;;;20.80;12.40;;;;;;;;;;4995634;28;20220;-74
2023/07/03 06:37:43;;;;;;;18.20;11.40;;;;;;;;;;5006667;28;20193;-74
2023/07/03 06:40:58;;;;;;;21.37;11.37;;;;;;;;;;4995776;28;20193;-73
2023/07/03 06:44:04;;;;;;;16.67;10.70;;;;;;;;;;5006308;28;20190;-74
2023/07/03 06:47:08;;;;;;;19.60;10.47;;;;;;;;;;5005905;28;20193;-74
2023/07/03 06:50:12;;;;;;;17.90;10.50;;;;;;;;;;4995683;28;20189;-73
2023/07/03 06:53:16;;;;;;;21.13;10.70;;;;;;;;;;4995370;28;20225;-73
2023/07/03 06:56:21;;;;;;;25.77;11.13;;;;;;;;;;4995268;28;20225;-73
2023/07/03 06:59:25;;;;;;;19.33;10.67;;;;;;;;;;4994603;28;20656;-74
2023/07/03 07:02:29;;;;;;;20.20;10.30;;;;;;;;;;4995065;28;20216;-73
2023/07/03 07:05:33;;;;;;;18.60;10.30;;;;;;;;;;4995361;28;20190;-73
2023/07/03 07:08:38;;;;;;;21.40;10.80;;;;;;;;;;4995104;28;20209;-73
2023/07/03 07:11:42;;;;;;;18.13;11.33;;;;;;;;;;4995031;28;20225;-73
2023/07/03 07:14:46;;;;;;;19.30;10.07;;;;;;;;;;4995224;28;20193;-74
2023/07/03 07:17:50;;;;;;;19.23;10.53;;;;;;;;;;4993331;28;20549;-73
2023/07/03 07:20:54;;;;;;;17.37;9.80;;;;;;;;;;4994831;28;20181;-74
2023/07/03 07:24:11;;;;;;;20.30;10.93;;;;;;;;;;5005693;28;20182;-73
2023/07/03 07:27:15;;;;;;;17.33;9.67;;;;;;;;;;4995351;28;20569;-73
2023/07/03 07:30:19;;;;;;;12.83;8.20;;;;;;;;;;4994803;28;20187;-73
2023/07/03 07:33:23;;;;;;;17.00;8.50;;;;;;;;;;4994857;28;20218;-74
2023/07/03 07:36:28;;;;;;;14.10;7.47;;;;;;;;;;4994727;28;20571;-74
2023/07/03 07:39:32;;;;;;;17.00;8.47;;;;;;;;;;4993756;28;20209;-73
2023/07/03 07:42:36;;;;;;;16.17;8.33;;;;;;;;;;5004862;28;20574;-73
2023/07/03 07:45:40;;;;;;;15.87;8.10;;;;;;;;;;5005293;28;20187;-74
2023/07/03 07:48:46;;;;;;;17.60;8.40;;;;;;;;;;4994158;28;20191;-74
2023/07/03 07:51:50;;;;;;;13.53;8.07;;;;;;;;;;4994604;28;20233;-74
2023/07/03 07:54:56;;;;;;;28.90;8.87;;;;;;;;;;4994900;28;20197;-74
2023/07/03 07:58:00;;;;;;;16.10;8.20;;;;;;;;;;4994489;28;20193;-74
2023/07/03 08:01:05;;;;;;;15.83;8.27;;;;;;;;;;4994123;28;20217;-74
2023/07/03 08:04:09;;;;;;;15.07;7.97;;;;;;;;;;4994128;28;20200;-74
2023/07/03 08:07:13;;;;;;;15.48;8.23;;;;;;;;;;4994263;28;20179;-73
2023/07/03 08:10:18;;;;;;;15.43;7.60;;;;;;;;;;4993913;28;20192;-74
2023/07/03 08:13:23;;;;;;;10.82;6.90;;;;;;;;;;5005252;28;20223;-74
2023/07/03 08:16:27;;;;;;;12.27;7.30;;;;;;;;;;4993106;28;20218;-73
2023/07/03 08:19:31;;;;;;;14.98;7.60;;;;;;;;;;4994254;28;20189;-74
2023/07/03 08:22:35;;;;;;;16.73;8.35;;;;;;;;;;4993625;28;20233;-73
2023/07/03 08:25:41;;;;;;;15.90;8.13;;;;;;;;;;4994037;28;20206;-74
2023/07/03 08:28:45;;;;;;;13.30;7.38;;;;;;;;;;4993933;28;20188;-74
2023/07/03 08:31:49;;;;;;;11.50;7.53;;;;;;;;;;4992959;28;20220;-74
2023/07/03 08:34:54;;;;;;;13.98;7.63;;;;;;;;;;4992880;28;20206;-74
2023/07/03 08:37:59;;;;;;;17.40;7.28;;;;;;;;;;4993904;28;20656;-74
2023/07/03 08:41:03;;;;;;;17.98;7.57;;;;;;;;;;5004211;28;20196;-74
2023/07/03 08:44:09;;;;;;;16.48;7.50;;;;;;;;;;4994046;28;20183;-73
2023/07/03 08:47:19;;;;;;;20.30;7.78;;;;;;;;;;4993825;28;20186;-74
2023/07/03 08:50:24;;;;;;;27.05;8.30;;;;;;;;;;5005804;28;20207;-73
2023/07/03 08:53:34;;;;;;;16.48;7.35;;;;;;;;;;4995851;28;20233;-74
2023/07/03 08:56:38;;;;;;;21.00;8.70;;;;;;;;;;4996201;28;20576;-74
2023/07/03 08:59:42;;;;;;;17.20;7.80;;;;;;;;;;5012638;22;20271;-74
2023/07/03 09:02:58;;;;;;;17.00;8.02;;;;;;;;;;5012339;28;20716;-72
2023/07/03 09:06:15;;;;;;;12.98;7.78;;;;;;;;;;4989987;28;20219;-72
2023/07/03 09:09:25;;;;;;;12.90;7.55;;;;;;;;;;5012334;28;20196;-73
2023/07/03 09:12:41;;;;;;;12.45;7.63;;;;;;;;;;5012283;28;20223;-74
2023/07/03 09:15:51;;;;;;;13.63;7.45;;;;;;;;;;5012222;28;20228;-73
2023/07/03 09:19:02;;;;;;;15.85;8.18;;;;;;;;;;5013116;28;20194;-73
2023/07/03 09:22:14;;;;;;;13.07;7.63;;;;;;;;;;5012050;28;20229;-73
2023/07/03 09:25:23;;;;;;;12.52;7.80;;;;;;;;;;5012917;28;20186;-74
2023/07/03 09:28:29;;;;;;;13.93;8.20;;;;;;;;;;5012991;28;20179;-73
2023/07/03 09:31:33;;;;;;;15.68;7.85;;;;;;;;;;5012045;28;20737;-73
2023/07/03 09:35:05;;;;;;;16.80;7.63;;;;;;;;;;5013311;28;20192;-73
2023/07/03 09:38:15;;;;;;;15.38;7.32;;;;;;;;;;5013179;28;20178;-73
2023/07/03 09:41:33;;;;;;;11.73;6.80;;;;;;;;;;5002190;28;20192;-72
2023/07/03 09:44:41;;;;;;;9.93;6.18;;;;;;;;;;5016625;28;20191;-73
2023/07/03 09:47:52;;;;;;;12.70;6.53;;;;;;;;;;5016031;28;20177;-73
2023/07/03 09:50:57;;;;;;;14.87;7.20;;;;;;;;;;5015433;28;20185;-73
2023/07/03 09:54:07;;;;;;;19.98;7.25;;;;;;;;;;5015987;28;20184;-72
2023/07/03 09:57:28;;;;;;;10.40;6.37;;;;;;;;;;5016223;28;20221;-73
2023/07/03 10:00:32;;;;;;;10.87;6.33;;;;;;;;;;5015764;28;20207;-73
2023/07/03 10:03:36;;;;;;;9.73;5.80;;;;;;;;;;5015941;28;20176;-73
2023/07/03 10:07:04;;;;;;;12.07;6.00;;;;;;;;;;5015948;28;20523;-73
2023/07/03 10:10:13;;;;;;;11.97;6.43;;;;;;;;;;5015794;28;20190;-73
2023/07/03 10:13:36;;;;;;;12.60;6.30;;;;;;;;;;5015446;28;20683;-73
2023/07/03 10:16:41;;;;;;;16.33;6.60;;;;;;;;;;5015678;28;20202;-73
2023/07/03 10:19:55;;;;;;;14.03;6.43;;;;;;;;;;5015612;28;20178;-73
2023/07/03 10:23:03;;;;;;;11.33;6.37;;;;;;;;;;5015427;28;20222;-73
2023/07/03 10:26:18;;;;;;;12.43;6.53;;;;;;;;;;5015426;28;20607;-72
2023/07/03 10:29:28;;;;;;;15.40;6.90;;;;;;;;;;5015187;28;20199;-72
2023/07/03 10:32:35;;;;;;;13.03;6.70;;;;;;;;;;5015424;28;20223;-71
2023/07/03 10:35:42;;;;;;;10.07;6.37;;;;;;;;;;5014736;28;20535;-72
2023/07/03 10:39:08;;;;;;;13.17;6.57;;;;;;;;;;5015348;28;20183;-73
2023/07/03 10:42:31;;;;;;;12.93;6.77;;;;;;;;;;5015353;28;20218;-72
2023/07/03 10:45:37;;;;;;;13.03;6.37;;;;;;;;;;5015191;28;20183;-72
2023/07/03 10:48:42;;;;;;;11.80;6.17;;;;;;;;;;5015074;28;20192;-72
2023/07/03 10:52:05;;;;;;;12.13;5.97;;;;;;;;;;5014272;28;20222;-73
2023/07/03 10:55:14;;;;;;;8.70;6.18;;;;;;;;;;5014692;28;20200;-73
2023/07/03 10:58:41;;;;;;;10.60;6.35;;;;;;;;;;5015253;28;20180;-73
2023/07/03 11:02:22;;;;;;;14.68;6.88;;;;;;;;;;5002447;28;20596;-73
2023/07/03 11:05:35;;;;;;;14.63;6.90;;;;;;;;;;5014789;28;20199;-72
2023/07/03 11:08:47;;;;;;;10.73;6.45;;;;;;;;;;5014547;28;20191;-73
2023/07/03 11:12:02;;;;;;;12.25;6.28;;;;;;;;;;5014910;28;20222;-72
2023/07/03 11:15:12;;;;;;;11.75;6.13;;;;;;;;;;5014798;28;20196;-72
2023/07/03 11:18:35;;;;;;;13.75;5.90;;;;;;;;;;5014208;28;20225;-72
2023/07/03 11:21:56;;;;;;;11.70;5.82;;;;;;;;;;5013568;28;20224;-72
2023/07/03 11:25:03;;;;;;;13.43;6.68;;;;;;;;;;5014441;28;20197;-72
2023/07/03 11:28:26;;;;;;;10.73;5.93;;;;;;;;;;5014127;28;20205;-72
2023/07/03 11:31:31;;;;;;;14.77;7.10;;;;;;;;;;5013789;28;20228;-73
2023/07/03 11:34:36;;;;;;;13.10;6.07;;;;;;;;;;5013358;28;20191;-72
2023/07/03 11:37:48;;;;;;;11.77;6.00;;;;;;;;;;5013909;28;20210;-72
2023/07/03 11:40:55;;;;;;;10.88;6.90;;;;;;;;;;5013312;28;20662;-73
2023/07/03 11:44:15;;;;;;;11.27;6.68;;;;;;;;;;5013428;28;20663;-72
2023/07/03 11:47:33;;;;;;;9.32;5.95;;;;;;;;;;5002014;28;20180;-72
2023/07/03 11:50:37;;;;;;;9.27;5.32;;;;;;;;;;5013748;28;20187;-72
2023/07/03 11:53:46;;;;;;;11.85;5.70;;;;;;;;;;5014242;28;20180;-73
2023/07/03 11:57:06;;;;;;;10.40;5.13;;;;;;;;;;5013101;28;20219;-73
2023/07/03 12:00:30;;;;;;;10.30;5.80;;;;;;;;;;5013903;28;20216;-73
2023/07/03 12:03:54;;;;;;;9.20;6.05;;;;;;;;;;5014080;28;20194;-73
2023/07/03 12:06:58;;;;;;;9.88;6.10;;;;;;;;;;5014105;28;20176;-73
2023/07/03 12:10:17;;;;;;;12.85;5.60;;;;;;;;;;5013870;28;20180;-73
2023/07/03 12:13:33;;;;;;;31.80;6.95;;;;;;;;;;5012610;28;20219;-72
2023/07/03 12:16:45;;;;;;;10.23;6.05;;;;;;;;;;5013534;28;20244;-72
2023/07/03 12:19:54;;;;;;;14.00;5.95;;;;;;;;;;5013701;28;20195;-72
2023/07/03 12:22:58;;;;;;;11.25;6.05;;;;;;;;;;5013425;28;20220;-73
2023/07/03 12:26:07;;;;;;;11.40;5.80;;;;;;;;;;5012392;28;20212;-72
2023/07/03 12:29:11;;;;;;;10.70;6.22;;;;;;;;;;5013006;28;20199;-73
2023/07/03 12:32:32;;;;;;;11.48;6.10;;;;;;;;;;5013149;28;20231;-72
2023/07/03 12:35:43;;;;;;;13.57;6.18;;;;;;;;;;5012884;28;20191;-72
2023/07/03 12:38:47;;;;;;;9.50;5.70;;;;;;;;;;5013819;28;20549;-73
2023/07/03 12:41:51;;;;;;;9.13;5.35;;;;;;;;;;5013293;28;20217;-71
2023/07/03 12:45:10;;;;;;;20.88;7.63;;;;;;;;;;5013552;28;20189;-71
2023/07/03 12:48:19;;;;;;;14.20;5.93;;;;;;;;;;5013221;28;20583;-72
2023/07/03 12:51:23;;;;;;;8.88;5.53;;;;;;;;;;5012328;28;20185;-72
2023/07/03 12:54:28;;;;;;;10.18;5.68;;;;;;;;;;5013276;28;20182;-72
2023/07/03 12:57:34;;;;;;;9.57;5.75;;;;;;;;;;5013320;28;20217;-71
2023/07/03 13:00:38;;;;;;;9.45;5.53;;;;;;;;;;5001075;28;20209;-71
2023/07/03 13:03:43;;;;;;;9.30;5.53;;;;;;;;;;5013389;28;20186;-73
2023/07/03 13:06:47;;;;;;;10.88;5.10;;;;;;;;;;5013610;28;20523;-71
2023/07/03 13:09:54;;;;;;;8.55;5.05;;;;;;;;;;5013165;28;20191;-72
2023/07/03 13:13:06;;;;;;;9.45;5.22;;;;;;;;;;5013161;28;20219;-72
2023/07/03 13:16:15;;;;;;;9.25;5.22;;;;;;;;;;5013904;28;20182;-72
2023/07/03 13:19:34;;;;;;;10.48;5.80;;;;;;;;;;5017279;28;20502;-72
2023/07/03 13:22:47;;;;;;;10.05;5.07;;;;;;;;;;5004574;28;20223;-72
2023/07/03 13:25:53;;;;;;;9.30;5.22;;;;;;;;;;5016985;28;20191;-72
2023/07/03 13:29:00;;;;;;;10.18;5.13;;;;;;;;;;5016651;28;20183;-72
2023/07/03 13:32:19;;;;;;;10.60;5.43;;;;;;;;;;5004565;28;20227;-72
2023/07/03 13:35:46;;;;;;;9.82;5.43;;;;;;;;;;5016670;28;20194;-72
2023/07/03 13:39:13;;;;;;;11.32;5.45;;;;;;;;;;5016427;28;20217;-72
2023/07/03 13:42:18;;;;;;;8.07;5.38;;;;;;;;;;5016287;28;20221;-72
2023/07/03 13:45:24;;;;;;;9.82;5.13;;;;;;;;;;5016741;28;20184;-72
2023/07/03 13:48:27;;;;;;;8.73;4.78;;;;;;;;;;5015154;28;20194;-71
2023/07/03 13:51:32;;;;;;;7.07;4.95;;;;;;;;;;5016074;28;20210;-72
2023/07/03 13:54:37;;;;;;;10.25;5.53;;;;;;;;;;5016039;28;20199;-72
2023/07/03 13:57:41;;;;;;;9.30;5.35;;;;;;;;;;5016017;28;20329;-73
2023/07/03 14:00:45;;;;;;;11.65;5.43;;;;;;;;;;5015652;28;20206;-72
2023/07/03 14:03:49;;;;;;;7.82;5.30;;;;;;;;;;5015763;28;20212;-72
2023/07/03 14:06:53;;;;;;;9.70;5.28;;;;;;;;;;5015145;28;20183;-72
2023/07/03 14:09:59;;;;;;;10.55;5.70;;;;;;;;;;5015076;28;20186;-72
2023/07/03 14:13:03;;;;;;;12.23;5.43;;;;;;;;;;5015559;28;20215;-72
2023/07/03 14:16:08;;;;;;;8.13;5.28;;;;;;;;;;5014969;28;20191;-72
2023/07/03 14:19:12;;;;;;;9.30;5.13;;;;;;;;;;5015664;28;20207;-72
2023/07/03 14:22:16;;;;;;;10.43;5.15;;;;;;;;;;5015357;28;20218;-72
2023/07/03 14:25:22;;;;;;;12.10;5.70;;;;;;;;;;5015529;28;20201;-72
2023/07/03 14:28:26;;;;;;;10.27;5.38;;;;;;;;;;5015256;28;20199;-72
2023/07/03 14:31:31;;;;;;;15.13;6.13;;;;;;;;;;5014702;28;20575;-72
2023/07/03 14:34:35;;;;;;;11.35;5.35;;;;;;;;;;5014329;28;20206;-72
2023/07/03 14:37:39;;;;;;;10.93;5.47;;;;;;;;;;5015332;28;20574;-72
2023/07/03 14:40:43;;;;;;;8.23;5.35;;;;;;;;;;5015441;28;20179;-72
2023/07/03 14:43:47;;;;;;;8.90;5.13;;;;;;;;;;5014453;28;20187;-72
2023/07/03 14:46:54;;;;;;;13.20;5.82;;;;;;;;;;5015086;28;20187;-73
2023/07/03 14:49:58;;;;;;;13.02;5.97;;;;;;;;;;5015207;28;20188;-73
2023/07/03 14:53:02;;;;;;;12.80;5.68;;;;;;;;;;5014747;28;20244;-72
2023/07/03 14:56:06;;;;;;;11.45;5.47;;;;;;;;;;5015042;28;20182;-72
2023/07/03 14:59:10;;;;;;;12.13;5.40;;;;;;;;;;5014811;28;20221;-72
2023/07/03 15:02:14;;;;;;;10.68;5.13;;;;;;;;;;5029287;22;20240;-73
2023/07/03 15:05:19;;;;;;;13.85;5.43;;;;;;;;;;5014789;28;20663;-74
2023/07/03 15:08:23;;;;;;;10.77;5.10;;;;;;;;;;5014401;28;20650;-74
2023/07/03 15:11:27;;;;;;;10.55;5.68;;;;;;;;;;5014052;28;20216;-73
2023/07/03 15:14:31;;;;;;;12.43;5.43;;;;;;;;;;5014357;28;20251;-73
2023/07/03 15:17:35;;;;;;;13.05;5.85;;;;;;;;;;5014505;28;20218;-72
2023/07/03 15:20:39;;;;;;;12.23;5.93;;;;;;;;;;5014422;28;20211;-73
2023/07/03 15:23:43;;;;;;;11.40;5.93;;;;;;;;;;5014170;28;20184;-72
2023/07/03 15:26:48;;;;;;;14.68;5.95;;;;;;;;;;5014627;28;20192;-73
2023/07/03 15:29:52;;;;;;;10.68;6.03;;;;;;;;;;5014595;28;20188;-73
2023/07/03 15:32:56;;;;;;;11.90;5.18;;;;;;;;;;5013649;28;20228;-73
2023/07/03 15:36:00;;;;;;;17.48;6.53;;;;;;;;;;5013687;28;20181;-73
2023/07/03 15:39:04;;;;;;;13.45;5.78;;;;;;;;;;5013104;28;20211;-73
2023/07/03 15:42:09;;;;;;;11.80;5.70;;;;;;;;;;5002156;28;20587;-74
2023/07/03 15:45:13;;;;;;;12.13;5.78;;;;;;;;;;5014659;28;20187;-74
2023/07/03 15:48:18;;;;;;;10.88;5.82;;;;;;;;;;5014294;28;20180;-73
2023/07/03 15:51:22;;;;;;;13.55;6.60;;;;;;;;;;5012864;28;20688;-73
2023/07/03 15:54:26;;;;;;;10.48;5.93;;;;;;;;;;5013874;28;20183;-73
2023/07/03 15:57:30;;;;;;;13.38;5.28;;;;;;;;;;5013944;28;20205;-73
2023/07/03 16:00:34;;;;;;;12.48;5.38;;;;;;;;;;5012981;28;20177;-73
2023/07/03 16:03:39;;;;;;;11.95;5.15;;;;;;;;;;5013745;28;20184;-72
2023/07/03 16:06:43;;;;;;;12.73;5.65;;;;;;;;;;5013751;28;20705;-72
2023/07/03 16:09:47;;;;;;;11.75;6.00;;;;;;;;;;5012285;28;20731;-73
2023/07/03 16:12:51;;;;;;;13.23;5.30;;;;;;;;;;5012541;28;20222;-72
2023/07/03 16:16:07;;;;;;;14.25;5.50;;;;;;;;;;5001506;28;20206;-73
2023/07/03 16:19:11;;;;;;;12.35;6.03;;;;;;;;;;5001430;28;20226;-73
2023/07/03 16:22:15;;;;;;;8.70;4.28;;;;;;;;;;5013471;28;20596;-73
2023/07/03 16:25:19;;;;;;;8.98;4.70;;;;;;;;;;5013898;28;20644;-73
2023/07/03 16:28:23;;;;;;;9.88;4.68;;;;;;;;;;5013861;28;20170;-72
2023/07/03 16:31:29;;;;;;;8.43;4.43;;;;;;;;;;5012784;28;20210;-73
2023/07/03 16:34:35;;;;;;;9.52;4.45;;;;;;;;;;5013615;28;20179;-73
2023/07/03 16:37:39;;;;;;;12.10;4.65;;;;;;;;;;5012649;28;20177;-73
2023/07/03 16:40:43;;;;;;;12.07;4.50;;;;;;;;;;5013252;28;20195;-73
2023/07/03 16:43:49;;;;;;;8.23;4.80;;;;;;;;;;5013526;28;20194;-73
2023/07/03 16:46:53;;;;;;;11.97;4.53;;;;;;;;;;5013380;28;20183;-73
2023/07/03 16:49:58;;;;;;;6.63;4.10;;;;;;;;;;5014128;28;20199;-73
2023/07/03 16:53:02;;;;;;;8.90;4.53;;;;;;;;;;5016381;28;20222;-73
2023/07/03 16:56:12;;;;;;;6.97;4.10;;;;;;;;;;5017602;28;20539;-73
2023/07/03 16:59:16;;;;;;;7.37;3.87;;;;;;;;;;5017365;28;20210;-72
2023/07/03 17:02:20;;;;;;;9.03;3.90;;;;;;;;;;5016185;28;20227;-73
2023/07/03 17:05:26;;;;;;;7.70;3.80;;;;;;;;;;5016408;28;20185;-73
2023/07/03 17:08:30;;;;;;;6.90;4.07;;;;;;;;;;5016289;28;20522;-73
2023/07/03 17:11:34;;;;;;;6.40;3.67;;;;;;;;;;5016998;28;20223;-73
2023/07/03 17:14:39;;;;;;;6.67;3.23;;;;;;;;;;5016740;28;20637;-73
2023/07/03 17:17:43;;;;;;;7.57;2.90;;;;;;;;;;5015871;28;20178;-72
2023/07/03 17:20:47;;;;;;;6.93;3.37;;;;;;;;;;5016883;28;20193;-73
2023/07/03 17:24:01;;;;;;;9.27;3.73;;;;;;;;;;5016868;28;20626;-73
2023/07/03 17:27:05;;;;;;;6.60;3.80;;;;;;;;;;5015765;28;20636;-73
2023/07/03 17:30:10;;;;;;;6.60;3.80;;;;;;;;;;5015687;28;20178;-73
2023/07/03 17:33:15;;;;;;;7.17;3.37;;;;;;;;;;5017123;28;20213;-73
2023/07/03 17:36:19;;;;;;;7.83;3.57;;;;;;;;;;5015818;28;20575;-73
2023/07/03 17:39:23;;;;;;;13.00;3.30;;;;;;;;;;5016253;28;20207;-73
2023/07/03 17:42:27;;;;;;;5.23;3.10;;;;;;;;;;5015613;28;20593;-73
2023/07/03 17:45:32;;;;;;;5.70;3.17;;;;;;;;;;5004056;28;20208;-73
2023/07/03 17:48:36;;;;;;;8.30;3.17;;;;;;;;;;5004124;28;20194;-72
2023/07/03 17:51:40;;;;;;;6.63;2.93;;;;;;;;;;5015910;28;20216;-72
2023/07/03 17:54:44;;;;;;;6.57;3.50;;;;;;;;;;5016636;28;20537;-73
2023/07/03 17:57:49;;;;;;;7.30;3.10;;;;;;;;;;5016728;28;20177;-72
2023/07/03 18:01:00;;;;;;;7.83;3.30;;;;;;;;;;5015474;28;20199;-73
2023/07/03 18:04:05;;;;;;;6.47;2.90;;;;;;;;;;5015679;28;20638;-73
2023/07/03 18:07:11;;;;;;;6.30;3.37;;;;;;;;;;5015784;28;20195;-72
2023/07/03 18:10:15;;;;;;;6.97;3.53;;;;;;;;;;5015193;28;20176;-73
2023/07/03 18:13:20;;;;;;;9.93;3.40;;;;;;;;;;5015991;28;20210;-72
2023/07/03 18:16:24;;;;;;;4.80;2.67;;;;;;;;;;5016322;28;20180;-72
2023/07/03 18:19:29;;;;;;;12.73;3.67;;;;;;;;;;5017033;28;20206;-72